Time;durP1;ratioP1;P1;durP2;ratioP2;P2;SDS_P1;SDS_P2;PMS_P1;PMS_P2;Temp;Humidity;BMP_temperature;BMP_pressure;BME280_temperature;BME280_humidity;BME280_pressure;Samples;Min_cycle;Max_cycle;Signal;HPM_P1;HPM_P2
2023/03/25 00:01:17;;;;;;;;;;;;;;;15.42;61.69;99016.66;4435947;32;34294;-81
2023/03/25 00:03:52;;;;;;;;;;;;;;;15.84;60.05;99017.16;4427850;32;33465;-79
2023/03/25 00:06:19;;;;;;;;;;;;;;;15.01;63.18;99024.81;4407149;32;33511;-80
2023/03/25 00:08:47;;;;;;;;;;;;;;;15.28;62.55;99026.06;4407282;32;35038;-80
2023/03/25 00:11:14;;;;;;;;;;;;;;;15.20;63.07;99025.06;4439754;32;34162;-79
2023/03/25 00:13:42;;;;;;;;;;;;;;;15.04;63.75;99024.84;4440582;32;33822;-81
2023/03/25 00:16:10;;;;;;;;;;;;;;;14.90;64.91;99026.37;4432580;32;35096;-80
2023/03/25 00:18:37;;;;;;;;;;;;;;;14.98;64.87;99032.56;4393774;32;33666;-78
2023/03/25 00:21:06;;;;;;;;;;;;;;;14.84;65.64;99039.31;4393201;32;34338;-78
2023/03/25 00:23:33;;;;;;;;;;;;;;;14.90;65.13;99034.19;4400264;32;32711;-80
2023/03/25 00:26:02;;;;;;;;;;;;;;;14.81;65.86;99037.53;4415048;32;34273;-79
2023/03/25 00:28:30;;;;;;;;;;;;;;;15.21;64.64;99022.47;4401280;32;33123;-79
2023/03/25 00:30:58;;;;;;;;;;;;;;;15.52;63.53;99028.97;4427370;32;33746;-79
2023/03/25 00:33:25;;;;;;;;;;;;;;;15.22;64.54;99028.56;4449726;32;33243;-79
2023/03/25 00:35:57;;;;;;;;;;;;;;;15.36;63.85;99027.03;4430015;32;34257;-81
2023/03/25 00:38:32;;;;;;;;;;;;;;;15.23;64.82;99025.97;4409735;32;34087;-79
2023/03/25 00:41:13;;;;;;;;;;;;;;;14.69;66.65;99033.00;4406953;32;34208;-80
2023/03/25 00:43:40;;;;;;;;;;;;;;;14.69;66.85;99030.41;4418440;32;33311;-81
2023/03/25 00:46:07;;;;;;;;;;;;;;;14.78;66.62;99028.81;4411445;32;34661;-79
2023/03/25 00:48:35;;;;;;;;;;;;;;;15.18;65.43;99037.19;4407274;32;32861;-80
2023/03/25 00:51:07;;;;;;;;;;;;;;;14.59;67.34;99031.13;4408814;32;34442;-79
2023/03/25 00:53:35;;;;;;;;;;;;;;;14.72;66.39;99027.84;4414486;32;33265;-79
2023/03/25 00:56:03;;;;;;;;;;;;;;;14.48;67.42;99024.81;4408635;32;34243;-79
2023/03/25 00:58:30;;;;;;;;;;;;;;;14.67;66.91;99034.72;4417414;32;33743;-80
2023/03/25 01:00:58;;;;;;;;;;;;;;;14.83;66.31;99029.75;4452143;32;34298;-80
2023/03/25 01:03:27;;;;;;;;;;;;;;;15.09;65.29;99023.19;4448960;32;33546;-78
2023/03/25 01:05:56;;;;;;;;;;;;;;;15.08;65.29;99030.97;4426961;32;33813;-78
2023/03/25 01:08:24;;;;;;;;;;;;;;;15.55;63.65;99017.69;4390392;32;35012;-81
2023/03/25 01:10:53;;;;;;;;;;;;;;;14.57;66.70;99034.56;4427924;32;34459;-78
2023/03/25 01:13:21;;;;;;;;;;;;;;;14.49;67.48;99042.22;4451628;32;33165;-78
2023/03/25 01:15:49;;;;;;;;;;;;;;;15.15;64.94;99038.03;4437535;32;34684;-81
2023/03/25 01:18:17;;;;;;;;;;;;;;;15.37;64.25;99023.53;4405993;32;34860;-80
2023/03/25 01:20:44;;;;;;;;;;;;;;;14.55;67.93;99034.50;4403640;32;35118;-79
2023/03/25 01:23:12;;;;;;;;;;;;;;;15.18;66.39;99034.59;4445466;32;34137;-78
2023/03/25 01:25:39;;;;;;;;;;;;;;;15.02;67.40;99042.19;4418098;32;34018;-78
2023/03/25 01:28:06;;;;;;;;;;;;;;;15.12;67.51;99037.97;4447121;32;33741;-79
2023/03/25 01:30:34;;;;;;;;;;;;;;;15.21;67.60;99037.25;4433864;32;34414;-80
2023/03/25 01:33:02;;;;;;;;;;;;;;;14.88;68.77;99048.94;4392566;32;34428;-80
2023/03/25 01:35:29;;;;;;;;;;;;;;;14.90;69.30;99053.31;4438503;32;33944;-80
2023/03/25 01:37:56;;;;;;;;;;;;;;;14.99;69.12;99052.59;4410141;32;34917;-78
2023/03/25 01:40:24;;;;;;;;;;;;;;;15.07;69.01;99056.19;4394534;32;34795;-79
2023/03/25 01:42:51;;;;;;;;;;;;;;;14.85;69.96;99054.09;4443706;32;33371;-79
2023/03/25 01:45:20;;;;;;;;;;;;;;;14.49;71.88;99060.44;4404832;32;32494;-80
2023/03/25 01:47:49;;;;;;;;;;;;;;;14.84;70.58;99060.19;4435517;32;34334;-78
2023/03/25 01:50:17;;;;;;;;;;;;;;;14.60;71.51;99061.53;4392677;32;33267;-80
2023/03/25 01:52:44;;;;;;;;;;;;;;;14.46;71.90;99068.19;4421904;32;33171;-79
2023/03/25 01:55:12;;;;;;;;;;;;;;;14.57;71.78;99068.44;4385769;32;34231;-78
2023/03/25 01:57:40;;;;;;;;;;;;;;;14.59;71.65;99056.31;4414712;32;34818;-80
2023/03/25 02:00:08;;;;;;;;;;;;;;;14.47;73.02;99069.97;4399893;32;35025;-79
2023/03/25 02:02:39;;;;;;;;;;;;;;;14.26;74.41;99060.91;4406490;32;31610;-80
2023/03/25 02:05:16;;;;;;;;;;;;;;;13.99;75.92;99057.81;4389501;32;34967;-79
2023/03/25 02:07:46;;;;;;;;;;;;;;;13.80;76.98;99060.03;4421447;32;34255;-79
2023/03/25 02:10:15;;;;;;;;;;;;;;;13.62;78.52;99062.25;4392374;32;34543;-79
2023/03/25 02:12:44;;;;;;;;;;;;;;;13.47;80.23;99068.91;4389675;32;34325;-78
2023/03/25 02:15:13;;;;;;;;;;;;;;;13.74;80.00;99067.72;4418849;32;33979;-82
2023/03/25 02:17:50;;;;;;;;;;;;;;;13.71;80.11;99067.66;4397511;32;34224;-79
2023/03/25 02:20:23;;;;;;;;;;;;;;;13.54;80.99;99057.78;4393504;32;34390;-78
2023/03/25 02:23:00;;;;;;;;;;;;;;;12.70;84.82;99069.72;4424001;32;33483;-80
2023/03/25 02:25:34;;;;;;;;;;;;;;;13.42;81.86;99064.44;4399288;32;34866;-79
2023/03/25 02:28:13;;;;;;;;;;;;;;;13.55;81.03;99063.87;4457160;32;34914;-79
2023/03/25 02:30:47;;;;;;;;;;;;;;;13.35;81.86;99056.53;4379508;32;33828;-81
2023/03/25 02:33:33;;;;;;;;;;;;;;;12.99;84.00;99064.34;4435050;32;34092;-80
2023/03/25 02:36:24;;;;;;;;;;;;;;;12.86;83.83;99049.28;4404968;32;35109;-79
2023/03/25 02:38:52;;;;;;;;;;;;;;;13.29;81.79;99039.84;4396333;32;34940;-77
2023/03/25 02:41:31;;;;;;;;;;;;;;;12.69;83.94;99043.69;4383183;32;35073;-80
2023/03/25 02:44:04;;;;;;;;;;;;;;;13.05;82.60;99042.81;4395796;32;33230;-78
2023/03/25 02:46:31;;;;;;;;;;;;;;;13.53;79.71;99044.75;4411002;32;34668;-78
2023/03/25 02:49:09;;;;;;;;;;;;;;;13.60;79.03;99041.44;4393041;32;34501;-78
2023/03/25 02:51:43;;;;;;;;;;;;;;;13.51;78.60;99044.72;4435565;32;35226;-79
2023/03/25 02:54:11;;;;;;;;;;;;;;;13.34;78.59;99046.06;4390957;32;33037;-78
2023/03/25 02:56:39;;;;;;;;;;;;;;;13.31;78.23;99046.03;4430514;32;33957;-78
2023/03/25 02:59:06;;;;;;;;;;;;;;;13.19;78.37;99046.56;4383956;32;34080;-79
2023/03/25 03:01:34;;;;;;;;;;;;;;;12.68;80.35;99036.75;4387907;32;33788;-77
2023/03/25 03:04:02;;;;;;;;;;;;;;;12.93;79.89;99044.28;4438044;32;33397;-78
2023/03/25 03:06:29;;;;;;;;;;;;;;;13.17;79.56;99056.97;4457406;32;34829;-79
2023/03/25 03:09:03;;;;;;;;;;;;;;;13.10;80.42;99052.47;4434078;32;33330;-80
2023/03/25 03:11:55;;;;;;;;;;;;;;;12.72;83.50;99052.44;4392444;32;34427;-80
2023/03/25 03:14:28;;;;;;;;;;;;;;;13.08;82.47;99053.28;4379668;32;34011;-79
2023/03/25 03:17:17;;;;;;;;;;;;;;;13.06;83.76;99049.78;4441835;32;34362;-79
2023/03/25 03:19:47;;;;;;;;;;;;;;;12.91;85.65;99053.75;4434388;32;34409;-78
2023/03/25 03:22:20;;;;;;;;;;;;;;;12.89;87.64;99065.84;4442768;32;33367;-79
2023/03/25 03:24:50;;;;;;;;;;;;;;;11.81;94.55;99069.97;4416339;32;33488;-81
2023/03/25 03:27:24;;;;;;;;;;;;;;;12.25;93.12;99062.53;4440780;32;33588;-81
2023/03/25 03:29:51;;;;;;;;;;;;;;;11.88;94.98;99066.72;4389153;32;34264;-80
2023/03/25 03:32:27;;;;;;;;;;;;;;;12.37;94.29;99062.84;4439759;32;34072;-78
2023/03/25 03:34:56;;;;;;;;;;;;;;;12.51;92.96;99067.50;4421657;32;34094;-81
2023/03/25 03:37:28;;;;;;;;;;;;;;;12.30;94.18;99070.44;4428269;32;33810;-79
2023/03/25 03:39:56;;;;;;;;;;;;;;;12.36;94.77;99068.88;4426762;32;33754;-77
2023/03/25 03:42:29;;;;;;;;;;;;;;;12.10;97.11;99072.50;4395036;32;35043;-78
2023/03/25 03:44:59;;;;;;;;;;;;;;;12.10;95.00;99077.72;4420161;32;33307;-80
2023/03/25 03:47:31;;;;;;;;;;;;;;;12.41;96.09;99083.72;4408730;32;34823;-78
2023/03/25 03:49:59;;;;;;;;;;;;;;;12.59;93.94;99089.34;4457870;32;34152;-79
2023/03/25 03:52:28;;;;;;;;;;;;;;;12.42;94.26;99091.53;4402609;32;34683;-79
2023/03/25 03:54:57;;;;;;;;;;;;;;;11.94;97.26;99089.41;4404439;32;34342;-80
2023/03/25 03:57:25;;;;;;;;;;;;;;;12.09;98.19;99096.69;4418536;32;33879;-79
2023/03/25 03:59:57;;;;;;;;;;;;;;;11.77;99.10;99104.44;4456095;32;33906;-79
2023/03/25 04:02:31;;;;;;;;;;;;;;;11.48;100.00;99113.97;4395333;32;33739;-77
2023/03/25 04:04:59;;;;;;;;;;;;;;;11.71;100.00;99109.47;4418815;32;33460;-78
2023/03/25 04:07:37;;;;;;;;;;;;;;;12.10;97.77;99114.91;4385119;32;34926;-79
2023/03/25 04:10:19;;;;;;;;;;;;;;;12.18;97.17;99112.53;4442869;32;34066;-79
2023/03/25 04:12:50;;;;;;;;;;;;;;;11.63;100.00;99119.63;4395124;32;33709;-78
2023/03/25 04:15:18;;;;;;;;;;;;;;;12.47;96.30;99117.63;4404455;32;33357;-78
2023/03/25 04:17:46;;;;;;;;;;;;;;;12.04;98.51;99113.88;4406342;32;35009;-80
2023/03/25 04:20:15;;;;;;;;;;;;;;;12.21;96.12;99120.41;4404204;32;33941;-79
2023/03/25 04:22:44;;;;;;;;;;;;;;;11.46;100.00;99124.28;4428885;32;32665;-78
2023/03/25 04:25:12;;;;;;;;;;;;;;;11.49;100.00;99129.59;4443673;32;33397;-79
2023/03/25 04:27:40;;;;;;;;;;;;;;;11.39;100.00;99127.53;4392950;32;34903;-79
2023/03/25 04:30:08;;;;;;;;;;;;;;;12.15;98.89;99121.12;4396653;32;34973;-78
2023/03/25 04:32:35;;;;;;;;;;;;;;;11.86;98.08;99124.56;4408395;32;34426;-79
2023/03/25 04:35:02;;;;;;;;;;;;;;;12.50;94.81;99130.72;4395486;32;34138;-78
2023/03/25 04:37:32;;;;;;;;;;;;;;;11.91;97.66;99129.09;4444664;32;34185;-78
2023/03/25 04:40:00;;;;;;;;;;;;;;;11.80;98.72;99133.97;4398720;32;33956;-77
2023/03/25 04:42:31;;;;;;;;;;;;;;;12.33;97.08;99138.03;4410396;32;34306;-80
2023/03/25 04:44:59;;;;;;;;;;;;;;;11.72;97.51;99145.81;4431251;32;33546;-77
2023/03/25 04:47:26;;;;;;;;;;;;;;;11.44;99.77;99149.28;4432456;32;34888;-79
2023/03/25 04:49:54;;;;;;;;;;;;;;;12.25;94.55;99149.94;4401251;32;33307;-79
2023/03/25 04:52:21;;;;;;;;;;;;;;;11.74;96.85;99151.03;4440333;32;34668;-77
2023/03/25 04:54:49;;;;;;;;;;;;;;;11.73;98.03;99154.50;4422107;32;33856;-77
2023/03/25 04:57:16;;;;;;;;;;;;;;;12.06;95.58;99161.53;4450911;32;33893;-77
2023/03/25 04:59:43;;;;;;;;;;;;;;;12.11;95.05;99152.12;4406341;32;34877;-78
2023/03/25 05:02:12;;;;;;;;;;;;;;;11.33;97.54;99163.63;4406296;32;34057;-78
2023/03/25 05:04:46;;;;;;;;;;;;;;;11.63;96.08;99168.91;4423241;32;32390;-79
2023/03/25 05:07:15;;;;;;;;;;;;;;;11.85;94.55;99165.22;4402331;32;34563;-78
2023/03/25 05:09:42;;;;;;;;;;;;;;;11.67;94.84;99159.50;4390217;32;34078;-77
2023/03/25 05:12:10;;;;;;;;;;;;;;;11.28;96.60;99172.97;4393824;32;34996;-78
2023/03/25 05:14:38;;;;;;;;;;;;;;;11.35;96.59;99173.22;4415788;32;34415;-79
2023/03/25 05:17:05;;;;;;;;;;;;;;;11.39;96.40;99181.97;4427051;32;34165;-79
2023/03/25 05:19:33;;;;;;;;;;;;;;;11.49;94.67;99186.63;4413632;32;33822;-78
2023/03/25 05:22:03;;;;;;;;;;;;;;;11.65;94.81;99187.09;4420419;32;34180;-79
2023/03/25 05:24:30;;;;;;;;;;;;;;;12.11;91.86;99180.69;4418845;32;33503;-78
2023/03/25 05:27:01;;;;;;;;;;;;;;;11.68;91.89;99188.06;4423605;32;34999;-81
2023/03/25 05:29:32;;;;;;;;;;;;;;;11.77;90.73;99192.66;4379131;32;31809;-78
2023/03/25 05:32:00;;;;;;;;;;;;;;;11.71;91.02;99192.47;4387327;32;34222;-78
2023/03/25 05:34:28;;;;;;;;;;;;;;;11.74;90.26;99188.28;4449456;32;34188;-79
2023/03/25 05:36:56;;;;;;;;;;;;;;;11.55;89.21;99185.91;4425765;32;34052;-78
2023/03/25 05:39:24;;;;;;;;;;;;;;;11.66;89.60;99188.84;4417886;32;33954;-79
2023/03/25 05:41:54;;;;;;;;;;;;;;;12.21;85.86;99177.53;4433951;32;34256;-80
2023/03/25 05:44:22;;;;;;;;;;;;;;;12.10;85.90;99177.22;4437946;32;33014;-78
2023/03/25 05:46:49;;;;;;;;;;;;;;;11.58;89.49;99180.84;4408030;32;34869;-78
2023/03/25 05:49:16;;;;;;;;;;;;;;;11.70;89.14;99190.72;4423277;32;34104;-79
2023/03/25 05:51:44;;;;;;;;;;;;;;;11.66;88.06;99184.53;4407599;32;33976;-79
2023/03/25 05:54:11;;;;;;;;;;;;;;;11.99;85.98;99189.91;4451267;32;34094;-78
2023/03/25 05:56:40;;;;;;;;;;;;;;;11.06;91.76;99190.44;4392460;32;33999;-78
2023/03/25 05:59:07;;;;;;;;;;;;;;;11.30;90.85;99190.34;4394481;32;34852;-79
2023/03/25 06:01:38;;;;;;;;;;;;;;;11.22;90.87;99194.41;4397166;32;35150;-81
2023/03/25 06:04:08;;;;;;;;;;;;;;;11.10;90.77;99200.06;4406356;32;34198;-80
2023/03/25 06:06:36;;;;;;;;;;;;;;;11.18;91.02;99206.41;4406239;32;33921;-80
2023/03/25 06:09:04;;;;;;;;;;;;;;;11.33;90.27;99210.31;4428581;32;34450;-80
2023/03/25 06:11:36;;;;;;;;;;;;;;;11.58;88.42;99210.25;4400695;32;34521;-80
2023/03/25 06:14:05;;;;;;;;;;;;;;;11.35;89.38;99208.66;4455154;32;34169;-79
2023/03/25 06:16:34;;;;;;;;;;;;;;;11.61;88.36;99212.94;4411943;32;34074;-79
2023/03/25 06:19:01;;;;;;;;;;;;;;;11.68;88.41;99200.16;4430118;32;34829;-80
2023/03/25 06:21:34;;;;;;;;;;;;;;;11.55;89.13;99201.47;4419120;32;34143;-80
2023/03/25 06:24:01;;;;;;;;;;;;;;;11.32;89.16;99205.94;4401052;32;33422;-80
2023/03/25 06:26:29;;;;;;;;;;;;;;;11.22;90.24;99207.34;4447701;32;34142;-79
2023/03/25 06:28:57;;;;;;;;;;;;;;;11.41;88.64;99206.25;4432089;32;34261;-81
2023/03/25 06:31:32;;;;;;;;;;;;;;;11.34;89.22;99207.78;4389644;32;34173;-79
2023/03/25 06:34:00;;;;;;;;;;;;;;;11.36;89.49;99211.28;4395173;32;34492;-80
2023/03/25 06:36:28;;;;;;;;;;;;;;;11.40;89.33;99213.16;4388921;32;34853;-80
2023/03/25 06:38:57;;;;;;;;;;;;;;;11.31;89.13;99211.97;4393987;32;34674;-79
2023/03/25 06:41:24;;;;;;;;;;;;;;;11.18;88.71;99218.47;4395590;32;34479;-79
2023/03/25 06:43:53;;;;;;;;;;;;;;;11.30;89.40;99220.56;4393270;32;34287;-80
2023/03/25 06:46:24;;;;;;;;;;;;;;;11.20;89.06;99225.47;4364779;32;32525;-83
2023/03/25 06:48:53;;;;;;;;;;;;;;;11.23;88.78;99218.63;4384309;32;34874;-80
2023/03/25 06:51:21;;;;;;;;;;;;;;;11.87;86.99;99220.62;4422965;32;35020;-80
2023/03/25 06:53:48;;;;;;;;;;;;;;;11.49;86.77;99228.12;4383313;32;33391;-79
2023/03/25 06:56:16;;;;;;;;;;;;;;;12.12;84.91;99226.59;4385631;32;34023;-81
2023/03/25 06:58:45;;;;;;;;;;;;;;;11.98;85.55;99223.59;4421283;32;34094;-80
2023/03/25 07:01:12;;;;;;;;;;;;;;;12.87;81.96;99222.63;4381001;32;32809;-79
2023/03/25 07:03:40;;;;;;;;;;;;;;;11.98;85.96;99224.47;4417890;32;33569;-79
2023/03/25 07:06:07;;;;;;;;;;;;;;;12.62;84.26;99219.34;4390081;32;34300;-79
2023/03/25 07:08:34;;;;;;;;;;;;;;;12.15;84.80;99226.69;4428753;32;34987;-79
2023/03/25 07:11:06;;;;;;;;;;;;;;;11.77;85.82;99231.59;4380263;32;34346;-77
2023/03/25 07:13:34;;;;;;;;;;;;;;;12.00;84.35;99228.00;4370764;32;33795;-80
2023/03/25 07:16:01;;;;;;;;;;;;;;;12.19;84.10;99233.75;4438311;32;33894;-80
2023/03/25 07:18:29;;;;;;;;;;;;;;;12.71;82.52;99240.41;4394731;32;34008;-80
2023/03/25 07:20:57;;;;;;;;;;;;;;;12.40;83.39;99230.87;4393141;32;33343;-79
2023/03/25 07:23:24;;;;;;;;;;;;;;;12.51;82.96;99232.03;4415560;32;33006;-78
2023/03/25 07:25:51;;;;;;;;;;;;;;;13.32;79.27;99240.25;4380797;32;34313;-78
2023/03/25 07:28:19;;;;;;;;;;;;;;;12.88;81.09;99247.75;4371471;32;34133;-81
2023/03/25 07:30:46;;;;;;;;;;;;;;;12.52;80.95;99244.19;4370568;32;34304;-79
2023/03/25 07:33:15;;;;;;;;;;;;;;;12.72;79.67;99246.47;4389696;32;33928;-78
2023/03/25 07:35:42;;;;;;;;;;;;;;;12.68;80.71;99249.81;4419714;32;34150;-79
2023/03/25 07:38:09;;;;;;;;;;;;;;;12.89;78.20;99239.13;4415772;32;34810;-77
2023/03/25 07:40:37;;;;;;;;;;;;;;;13.32;76.22;99240.25;4409628;32;34213;-78
2023/03/25 07:43:04;;;;;;;;;;;;;;;13.39;76.92;99239.56;4394067;32;33750;-83
2023/03/25 07:45:32;;;;;;;;;;;;;;;13.53;74.42;99232.09;4411025;32;34096;-79
2023/03/25 07:48:21;;;;;;;;;;;;;;;13.27;75.66;99236.59;4398605;32;34288;-80
2023/03/25 07:50:49;;;;;;;;;;;;;;;13.48;74.39;99236.28;4409273;32;34249;-81
2023/03/25 07:53:17;;;;;;;;;;;;;;;14.03;71.67;99236.69;4430119;32;34285;-79
2023/03/25 07:55:45;;;;;;;;;;;;;;;14.05;72.25;99232.41;4437829;32;33901;-79
2023/03/25 07:58:12;;;;;;;;;;;;;;;14.09;71.33;99231.63;4399451;32;34155;-80
2023/03/25 08:00:39;;;;;;;;;;;;;;;13.84;72.74;99227.59;4380554;32;34306;-79
2023/03/25 08:03:09;;;;;;;;;;;;;;;14.33;71.35;99231.22;4398212;32;33749;-78
2023/03/25 08:05:36;;;;;;;;;;;;;;;13.63;72.65;99239.25;4385681;32;33871;-77
2023/03/25 08:08:04;;;;;;;;;;;;;;;14.59;70.15;99237.00;4396575;32;35243;-78
2023/03/25 08:10:33;;;;;;;;;;;;;;;14.04;70.20;99248.84;4452119;32;34473;-80
2023/03/25 08:13:01;;;;;;;;;;;;;;;14.27;67.95;99242.41;4394765;32;34112;-78
2023/03/25 08:15:28;;;;;;;;;;;;;;;14.15;68.75;99236.94;4380476;32;33615;-78
2023/03/25 08:17:56;;;;;;;;;;;;;;;14.28;67.67;99238.97;4383663;32;33847;-79
2023/03/25 08:20:23;;;;;;;;;;;;;;;14.45;67.96;99241.94;4393589;32;34970;-78
2023/03/25 08:22:53;;;;;;;;;;;;;;;14.40;67.51;99238.34;4393809;32;33769;-79
2023/03/25 08:25:20;;;;;;;;;;;;;;;14.74;65.97;99239.91;4381596;32;34984;-78
2023/03/25 08:27:47;;;;;;;;;;;;;;;14.43;67.85;99237.50;4419379;32;34263;-79
2023/03/25 08:30:16;;;;;;;;;;;;;;;15.45;65.53;99240.25;4415085;32;34186;-79
2023/03/25 08:32:44;;;;;;;;;;;;;;;16.40;58.11;99214.63;4410650;32;31806;-78
2023/03/25 08:35:12;;;;;;;;;;;;;;;16.46;55.99;99193.81;4433000;32;167585;-78
2023/03/25 08:37:41;;;;;;;2.03;1.10;;;;;;;16.60;55.87;99213.12;4392660;32;34954;-78
2023/03/25 08:40:09;;;;;;;4.30;1.35;;;;;;;17.04;54.38;99199.66;4405313;32;33804;-84
2023/03/25 08:42:37;;;;;;;3.20;1.30;;;;;;;17.27;54.39;99206.84;4408511;32;32290;-77
2023/03/25 08:45:05;;;;;;;3.10;1.20;;;;;;;16.76;54.74;99195.84;4405679;32;33906;-77
2023/03/25 08:47:33;;;;;;;3.20;1.35;;;;;;;16.70;54.12;99211.47;4445987;32;33435;-79
2023/03/25 08:50:01;;;;;;;2.90;1.30;;;;;;;16.28;56.17;99200.56;4406475;32;33996;-78
2023/03/25 08:52:28;;;;;;;3.58;1.50;;;;;;;15.75;58.39;99216.41;4397457;32;34010;-79
2023/03/25 08:54:57;;;;;;;2.50;1.40;;;;;;;16.21;55.98;99227.47;4405625;32;33725;-79
2023/03/25 08:57:25;;;;;;;3.60;1.50;;;;;;;15.38;57.82;99226.25;4378395;32;33434;-79
2023/03/25 08:59:52;;;;;;;2.37;1.37;;;;;;;15.82;56.55;99217.34;4412922;32;33799;-79
2023/03/25 09:02:20;;;;;;;3.87;1.50;;;;;;;15.70;57.58;99212.81;4393689;32;33376;-80
2023/03/25 09:04:47;;;;;;;3.85;1.48;;;;;;;15.77;58.88;99212.06;4420447;32;34254;-79
2023/03/25 09:07:18;;;;;;;4.20;1.60;;;;;;;15.68;57.18;99218.03;4444481;32;33683;-79
2023/03/25 09:09:46;;;;;;;4.35;1.60;;;;;;;15.40;57.75;99211.50;4397892;32;33879;-79
2023/03/25 09:12:14;;;;;;;4.90;1.90;;;;;;;16.01;56.71;99215.87;4387863;32;33531;-77
2023/03/25 09:14:41;;;;;;;3.60;1.83;;;;;;;15.70;57.97;99215.41;4406515;32;33722;-75
2023/03/25 09:17:09;;;;;;;3.67;1.30;;;;;;;15.84;57.99;99219.16;4393079;32;35185;-76
2023/03/25 09:19:37;;;;;;;2.97;1.60;;;;;;;16.18;56.39;99210.88;4366570;32;33267;-76
2023/03/25 09:22:06;;;;;;;3.20;1.60;;;;;;;16.52;56.84;99220.00;4396960;32;34320;-76
2023/03/25 09:24:36;;;;;;;4.72;1.87;;;;;;;16.67;56.19;99214.94;4395861;32;31796;-76
2023/03/25 09:27:04;;;;;;;4.68;2.08;;;;;;;16.05;57.19;99228.12;4413698;32;35318;-76
2023/03/25 09:29:31;;;;;;;4.00;2.20;;;;;;;15.56;57.09;99220.44;4438142;32;34914;-76
2023/03/25 09:31:59;;;;;;;3.97;1.60;;;;;;;16.12;58.22;99228.22;4383225;32;34391;-76
2023/03/25 09:34:27;;;;;;;3.27;1.77;;;;;;;17.30;54.19;99214.69;4397491;32;33756;-77
2023/03/25 09:36:55;;;;;;;4.05;1.83;;;;;;;16.33;54.06;99215.44;4403330;32;33780;-76
2023/03/25 09:39:23;;;;;;;4.28;1.52;;;;;;;16.80;53.76;99215.94;4372954;32;33764;-76
2023/03/25 09:42:19;;;;;;;3.40;1.40;;;;;;;16.80;51.58;99204.59;4390693;32;33143;-76
2023/03/25 09:44:57;;;;;;;3.18;1.40;;;;;;;16.88;52.85;99213.44;4371458;32;33515;-77
2023/03/25 09:47:25;;;;;;;4.07;1.70;;;;;;;16.95;53.50;99220.50;4374508;32;33579;-77
2023/03/25 09:49:56;;;;;;;3.47;1.55;;;;;;;16.94;52.42;99217.84;4383051;32;34564;-77
2023/03/25 09:52:38;;;;;;;3.40;1.95;;;;;;;16.73;51.80;99213.25;4398405;32;33491;-77
2023/03/25 09:55:08;;;;;;;4.90;1.95;;;;;;;16.35;52.99;99216.31;4409458;32;33034;-77
2023/03/25 09:57:45;;;;;;;5.35;2.05;;;;;;;17.09;52.57;99224.13;4426308;32;32757;-76
2023/03/25 10:00:17;;;;;;;4.75;1.95;;;;;;;17.05;53.05;99213.59;4387668;32;33402;-76
2023/03/25 10:02:51;;;;;;;4.50;2.03;;;;;;;16.16;54.69;99225.66;4396677;32;33289;-77
2023/03/25 10:05:44;;;;;;;4.87;2.00;;;;;;;16.18;53.74;99223.94;4401367;32;33242;-76
2023/03/25 10:08:37;;;;;;;3.97;2.03;;;;;;;16.78;52.45;99224.63;4412759;32;32941;-76
2023/03/25 10:11:22;;;;;;;4.03;2.22;;;;;;;16.86;52.80;99229.13;4409587;32;33290;-77
2023/03/25 10:14:10;;;;;;;4.82;2.42;;;;;;;16.31;55.09;99242.41;4380284;32;33627;-76
2023/03/25 10:16:43;;;;;;;4.10;2.08;;;;;;;15.73;56.52;99234.66;4376104;32;32993;-76
2023/03/25 10:19:35;;;;;;;4.70;2.27;;;;;;;16.68;55.55;99227.16;4393404;32;33007;-76
2023/03/25 10:22:08;;;;;;;5.95;2.80;;;;;;;16.14;56.20;99223.03;4402889;32;33175;-76
2023/03/25 10:24:41;;;;;;;6.32;2.80;;;;;;;15.88;55.74;99226.16;4385587;32;32926;-76
2023/03/25 10:27:22;;;;;;;4.50;2.40;;;;;;;16.06;55.05;99215.09;4392058;32;32881;-77
2023/03/25 10:30:02;;;;;;;4.32;2.05;;;;;;;16.66;53.58;99212.31;4418420;32;33517;-76
2023/03/25 10:32:41;;;;;;;6.30;1.97;;;;;;;17.13;52.80;99218.91;4419543;32;33328;-76
2023/03/25 10:35:35;;;;;;;3.67;1.80;;;;;;;16.67;51.81;99220.19;4421451;32;32509;-76
2023/03/25 10:38:23;;;;;;;5.57;1.50;;;;;;;17.04;51.92;99223.19;4413298;32;32909;-76
2023/03/25 10:40:58;;;;;;;4.08;2.00;;;;;;;17.68;48.40;99206.25;4417575;32;33057;-77
2023/03/25 10:43:32;;;;;;;4.12;1.40;;;;;;;16.89;50.77;99204.75;4411529;32;33676;-76
2023/03/25 10:46:24;;;;;;;4.97;1.65;;;;;;;16.46;48.86;99199.03;4408964;32;33863;-77
2023/03/25 10:48:52;;;;;;;4.23;1.70;;;;;;;16.97;50.41;99216.16;4440211;32;32976;-76
2023/03/25 10:51:23;;;;;;;4.53;1.40;;;;;;;17.73;49.14;99222.00;4435912;32;33831;-77
2023/03/25 10:53:51;;;;;;;5.57;1.30;;;;;;;17.71;47.84;99223.72;4413034;32;33329;-77
2023/03/25 10:56:26;;;;;;;3.65;1.48;;;;;;;17.68;47.47;99224.59;4400517;32;32848;-76
2023/03/25 10:58:56;;;;;;;4.50;1.35;;;;;;;16.99;47.46;99217.03;4410326;32;32920;-77
2023/03/25 11:01:36;;;;;;;5.10;1.73;;;;;;;17.34;49.19;99228.69;4375493;32;32920;-77
2023/03/25 11:04:09;;;;;;;4.05;1.40;;;;;;;16.78;48.73;99227.25;4433417;32;33081;-77
2023/03/25 11:06:39;;;;;;;3.90;1.70;;;;;;;16.92;48.38;99219.56;4390597;32;31772;-77
2023/03/25 11:09:14;;;;;;;4.28;1.58;;;;;;;16.87;49.36;99212.56;4378158;32;32813;-77
2023/03/25 11:11:46;;;;;;;5.03;1.50;;;;;;;16.50;47.95;99226.97;4404111;32;33602;-78
2023/03/25 11:17:04;;;;;;;3.15;1.60;;;;;;;16.75;48.75;99235.09;4395824;32;32280;-78
2023/03/25 11:19:38;;;;;;;3.61;1.30;;;;;;;16.21;48.89;99235.31;4400115;32;33464;-78
2023/03/25 11:22:22;;;;;;;3.60;1.20;;;;;;;16.28;46.19;99217.97;4396109;32;31596;-77
2023/03/25 11:24:56;;;;;;;4.00;1.00;;;;;;;16.21;46.68;99219.62;4381805;32;33846;-76
2023/03/25 11:27:27;;;;;;;3.50;1.30;;;;;;;16.39;47.91;99239.03;4384391;32;33777;-77
2023/03/25 11:29:59;;;;;;;3.85;1.17;;;;;;;16.14;47.68;99238.69;4405239;32;33011;-77
2023/03/25 11:33:03;;;;;;;3.97;1.20;;;;;;;16.06;48.73;99240.34;4379363;32;34257;-77
2023/03/25 11:35:36;;;;;;;3.50;1.10;;;;;;;15.83;48.66;99247.84;4393516;32;34727;-78
2023/03/25 11:38:22;;;;;;;3.00;1.20;;;;;;;16.43;48.22;99235.59;4403920;32;32700;-76
2023/03/25 11:40:52;;;;;;;4.80;1.12;;;;;;;15.77;48.60;99253.84;4400809;32;32996;-76
2023/03/25 11:43:22;;;;;;;5.80;1.50;;;;;;;15.64;49.27;99246.66;4391617;32;34258;-77
2023/03/25 11:45:49;;;;;;;4.37;1.33;;;;;;;15.45;49.04;99249.00;4395423;32;33072;-75
2023/03/25 11:48:20;;;;;;;4.40;1.17;;;;;;;15.84;47.87;99245.25;4400611;32;33372;-77
2023/03/25 11:51:00;;;;;;;5.37;1.10;;;;;;;15.69;48.92;99248.47;4384876;32;33573;-78
2023/03/25 11:53:30;;;;;;;4.10;1.00;;;;;;;16.28;47.43;99229.31;4374163;32;33887;-76
2023/03/25 11:56:03;;;;;;;4.19;1.09;;;;;;;15.89;48.03;99238.34;4395397;32;34532;-77
2023/03/25 11:58:33;;;;;;;5.17;1.10;;;;;;;15.93;49.55;99226.22;4396402;32;32555;-76
2023/03/25 12:01:10;;;;;;;2.87;1.00;;;;;;;15.33;49.63;99233.97;4398912;32;33095;-76
2023/03/25 12:03:38;;;;;;;3.87;1.00;;;;;;;15.36;50.57;99229.69;4369236;32;31465;-77
2023/03/25 12:06:11;;;;;;;5.93;1.40;;;;;;;15.13;49.31;99222.34;4399691;32;33754;-77
2023/03/25 12:08:43;;;;;;;10.18;1.80;;;;;;;14.98;50.23;99232.53;4411054;32;32439;-76
2023/03/25 12:11:17;;;;;;;4.82;1.00;;;;;;;14.99;50.89;99229.94;4378611;32;33401;-77
2023/03/25 12:14:06;;;;;;;4.62;1.20;;;;;;;15.01;51.82;99216.91;4373187;32;32834;-77
2023/03/25 12:16:58;;;;;;;4.35;1.00;;;;;;;14.87;49.72;99224.50;4391828;32;33808;-77
2023/03/25 12:19:44;;;;;;;3.60;1.00;;;;;;;15.06;50.08;99210.91;4407993;32;32871;-76
2023/03/25 12:22:22;;;;;;;3.45;1.10;;;;;;;15.00;50.61;99215.16;4403231;32;33827;-78
2023/03/25 12:24:56;;;;;;;3.80;1.20;;;;;;;15.70;49.33;99215.41;4400497;32;32716;-76
2023/03/25 12:27:32;;;;;;;3.30;0.90;;;;;;;15.05;48.79;99201.34;4388026;32;33100;-76
2023/03/25 12:30:06;;;;;;;3.60;1.10;;;;;;;15.77;48.15;99196.41;4408521;32;31891;-77
2023/03/25 12:32:52;;;;;;;2.85;0.95;;;;;;;16.15;47.95;99192.53;4406745;32;33295;-77
2023/03/25 12:35:53;;;;;;;2.80;0.80;;;;;;;15.94;46.93;99193.16;4392084;32;33884;-75
2023/03/25 12:38:37;;;;;;;3.30;0.70;;;;;;;15.60;47.75;99176.97;4391263;32;34142;-77
2023/03/25 12:41:22;;;;;;;3.33;1.00;;;;;;;15.65;46.83;99181.41;4374522;32;32154;-77
2023/03/25 12:44:17;;;;;;;2.70;1.00;;;;;;;15.63;46.19;99182.25;4365924;32;33169;-76